Time;durP1;ratioP1;P1;durP2;ratioP2;P2;SDS_P1;SDS_P2;PMS_P1;PMS_P2;Temp;Humidity;BMP_temperature;BMP_pressure;BME280_temperature;BME280_humidity;BME280_pressure;Samples;Min_cycle;Max_cycle;Signal;HPM_P1;HPM_P2
2020/12/10 00:02:13;;;;;;;30.67;21.30;;;1.90;99.90;;;;;;5045902;28;20184;-66
2020/12/10 00:04:38;;;;;;;32.50;23.17;;;1.90;99.90;;;;;;5044060;28;20290;-66
2020/12/10 00:07:04;;;;;;;29.13;22.60;;;1.90;99.90;;;;;;5040737;28;20267;-66
2020/12/10 00:09:30;;;;;;;28.87;22.33;;;1.90;99.90;;;;;;5040347;28;20208;-68
2020/12/10 00:11:56;;;;;;;37.03;25.17;;;1.90;99.90;;;;;;5039805;28;20231;-65
2020/12/10 00:14:21;;;;;;;33.57;24.80;;;1.90;99.90;;;;;;5039124;28;20188;-66
2020/12/10 00:16:48;;;;;;;42.07;27.50;;;2.00;99.90;;;;;;5036289;28;20212;-65
2020/12/10 00:19:14;;;;;;;39.17;27.03;;;2.00;99.90;;;;;;5036212;28;20343;-66
2020/12/10 00:21:40;;;;;;;40.07;29.80;;;2.00;99.90;;;;;;5035317;28;20265;-66
2020/12/10 00:24:05;;;;;;;50.03;31.70;;;2.00;99.90;;;;;;5026844;28;20195;-66
2020/12/10 00:26:31;;;;;;;46.23;31.17;;;2.00;99.90;;;;;;5045097;28;20183;-66
2020/12/10 00:28:56;;;;;;;51.23;33.87;;;2.00;99.90;;;;;;5047337;28;20693;-66
2020/12/10 00:31:22;;;;;;;53.93;35.20;;;2.00;99.90;;;;;;5039611;28;20615;-65
2020/12/10 00:33:48;;;;;;;53.80;33.73;;;2.00;99.90;;;;;;5039402;28;20185;-66
2020/12/10 00:36:14;;;;;;;60.97;37.00;;;2.00;99.90;;;;;;5042198;28;20196;-65
2020/12/10 00:38:39;;;;;;;48.30;33.10;;;2.00;99.90;;;;;;5041875;28;20352;-65
2020/12/10 00:41:05;;;;;;;49.80;34.13;;;2.00;99.90;;;;;;5039992;28;20198;-66
2020/12/10 00:43:31;;;;;;;48.07;34.10;;;2.00;99.90;;;;;;5040731;28;20712;-66
2020/12/10 00:46:05;;;;;;;48.03;33.57;;;2.00;99.90;;;;;;5042500;28;20184;-66
2020/12/10 00:48:34;;;;;;;48.53;32.73;;;2.00;99.90;;;;;;5033798;28;20187;-66
2020/12/10 00:51:01;;;;;;;51.40;32.20;;;2.10;99.90;;;;;;5044306;28;20563;-66
2020/12/10 00:53:28;;;;;;;51.70;33.97;;;2.00;99.90;;;;;;5036205;28;20192;-66
2020/12/10 00:55:57;;;;;;;43.23;30.80;;;2.00;99.90;;;;;;5041615;28;20204;-65
2020/12/10 00:58:23;;;;;;;45.87;32.27;;;2.00;99.90;;;;;;5040514;28;20212;-67
2020/12/10 01:00:50;;;;;;;48.33;32.40;;;2.00;99.90;;;;;;5037097;28;20231;-65
2020/12/10 01:03:16;;;;;;;43.97;31.40;;;2.00;99.90;;;;;;5040626;28;20659;-66
2020/12/10 01:05:41;;;;;;;41.97;30.87;;;2.00;99.90;;;;;;5042150;28;20267;-65
2020/12/10 01:08:07;;;;;;;47.20;32.03;;;1.90;99.90;;;;;;5038467;28;20240;-66
2020/12/10 01:10:33;;;;;;;50.73;33.70;;;1.90;99.90;;;;;;5039263;28;20197;-66
2020/12/10 01:12:59;;;;;;;52.57;32.90;;;1.90;99.90;;;;;;5044398;28;20195;-65
2020/12/10 01:15:25;;;;;;;49.77;32.57;;;1.90;99.90;;;;;;5044967;28;20184;-66
2020/12/10 01:17:51;;;;;;;53.17;34.10;;;1.90;99.90;;;;;;5039700;28;20701;-67
2020/12/10 01:20:16;;;;;;;50.50;34.60;;;1.90;99.90;;;;;;5037681;28;20248;-66
2020/12/10 01:22:42;;;;;;;50.47;32.90;;;1.80;99.90;;;;;;5036401;28;20341;-66
2020/12/10 01:25:07;;;;;;;51.30;32.67;;;1.80;99.90;;;;;;5038072;28;20305;-66
2020/12/10 01:27:33;;;;;;;48.13;32.07;;;1.90;99.90;;;;;;5044334;28;20184;-66
2020/12/10 01:29:59;;;;;;;50.40;32.77;;;1.90;99.90;;;;;;5032016;28;20208;-66
2020/12/10 01:32:25;;;;;;;50.27;32.33;;;1.90;99.90;;;;;;5027432;28;20250;-65
2020/12/10 01:34:51;;;;;;;48.13;31.23;;;1.90;99.90;;;;;;5040476;28;20198;-66
2020/12/10 01:37:18;;;;;;;46.90;32.20;;;1.90;99.90;;;;;;5039464;28;20216;-66
2020/12/10 01:39:44;;;;;;;41.67;30.53;;;1.90;99.90;;;;;;5038521;28;20199;-66
2020/12/10 01:42:10;;;;;;;41.60;29.33;;;1.90;99.90;;;;;;5044939;28;20183;-66
2020/12/10 01:44:36;;;;;;;45.23;31.20;;;1.90;99.90;;;;;;5045861;28;20266;-66
2020/12/10 01:47:01;;;;;;;45.30;30.77;;;1.90;99.90;;;;;;5038938;28;20275;-66
2020/12/10 01:49:27;;;;;;;43.43;30.20;;;1.80;99.90;;;;;;5048582;28;20214;-65
2020/12/10 01:51:53;;;;;;;43.80;30.90;;;1.80;99.90;;;;;;5055680;28;20180;-65
2020/12/10 01:54:19;;;;;;;41.47;28.83;;;1.80;99.90;;;;;;5058052;28;20206;-65
2020/12/10 01:56:45;;;;;;;40.13;29.20;;;1.90;99.90;;;;;;5060579;28;20214;-65
2020/12/10 01:59:13;;;;;;;43.60;30.07;;;1.90;99.90;;;;;;5052653;28;20239;-65
2020/12/10 02:01:38;;;;;;;44.07;30.30;;;1.90;99.90;;;;;;5040814;28;20208;-65
2020/12/10 02:04:25;;;;;;;43.67;29.17;;;1.90;99.90;;;;;;5040667;28;20233;-65
2020/12/10 02:06:50;;;;;;;41.23;28.87;;;1.90;99.90;;;;;;5048592;28;20194;-64
2020/12/10 02:09:16;;;;;;;45.67;29.90;;;1.80;99.90;;;;;;5041714;28;20211;-65
2020/12/10 02:11:41;;;;;;;41.97;29.53;;;1.90;99.90;;;;;;5044027;28;20183;-64
2020/12/10 02:14:07;;;;;;;45.47;29.90;;;1.90;99.90;;;;;;5045417;28;20187;-65
2020/12/10 02:16:32;;;;;;;42.23;29.57;;;1.80;99.90;;;;;;5046000;28;20568;-64
2020/12/10 02:18:58;;;;;;;44.90;29.37;;;1.80;99.90;;;;;;5032331;28;20205;-65
2020/12/10 02:21:24;;;;;;;43.33;30.03;;;1.90;99.90;;;;;;5043565;28;20564;-64
2020/12/10 02:23:54;;;;;;;40.80;29.13;;;1.90;99.90;;;;;;5040798;28;20191;-64
2020/12/10 02:26:26;;;;;;;40.70;28.97;;;1.90;99.90;;;;;;5042418;28;20186;-64
2020/12/10 02:29:00;;;;;;;42.43;28.53;;;1.90;99.90;;;;;;5044684;28;20192;-64
2020/12/10 02:31:28;;;;;;;42.50;28.87;;;1.80;99.90;;;;;;5023263;28;20357;-65
2020/12/10 02:34:02;;;;;;;47.57;31.13;;;1.80;99.90;;;;;;5040334;28;20667;-65
2020/12/10 02:36:28;;;;;;;41.83;28.97;;;1.80;99.90;;;;;;5041592;28;20173;-65
2020/12/10 02:38:54;;;;;;;42.60;29.03;;;1.80;99.90;;;;;;5045793;28;20191;-65
2020/12/10 02:41:20;;;;;;;42.30;29.63;;;1.80;99.90;;;;;;5043390;28;20197;-65
2020/12/10 02:43:45;;;;;;;45.77;29.83;;;1.80;99.90;;;;;;5047077;28;20219;-67
2020/12/10 02:46:11;;;;;;;47.17;31.53;;;1.70;99.90;;;;;;5039237;28;20234;-64
2020/12/10 02:48:37;;;;;;;44.93;29.77;;;1.80;99.90;;;;;;5043557;28;20207;-67
2020/12/10 02:51:04;;;;;;;47.10;30.93;;;1.80;99.90;;;;;;5038535;28;20193;-64
2020/12/10 02:53:31;;;;;;;44.10;28.93;;;1.80;99.90;;;;;;5043167;28;20274;-65
2020/12/10 02:55:57;;;;;;;47.00;30.67;;;1.70;99.90;;;;;;5040403;28;20197;-67
2020/12/10 02:58:22;;;;;;;49.60;31.53;;;1.70;99.90;;;;;;5049124;28;20217;-67
2020/12/10 03:00:48;;;;;;;47.50;31.27;;;1.70;99.90;;;;;;5049396;28;20204;-65
2020/12/10 03:03:14;;;;;;;49.20;30.73;;;1.70;99.90;;;;;;5047445;28;20267;-65
2020/12/10 03:05:40;;;;;;;49.40;31.57;;;1.70;99.90;;;;;;5045533;28;20238;-65
2020/12/10 03:08:06;;;;;;;52.47;31.73;;;1.70;99.90;;;;;;5043668;28;20193;-65
2020/12/10 03:10:32;;;;;;;50.73;32.63;;;1.70;99.90;;;;;;5041518;28;20287;-67
2020/12/10 03:12:57;;;;;;;46.97;31.77;;;1.70;99.90;;;;;;5050185;28;20213;-65
2020/12/10 03:15:23;;;;;;;46.90;31.40;;;1.70;99.90;;;;;;5044768;28;20764;-66
2020/12/10 03:17:49;;;;;;;48.40;31.00;;;1.70;99.90;;;;;;5037773;28;20216;-66
2020/12/10 03:20:16;;;;;;;55.10;32.53;;;1.70;99.90;;;;;;5040868;28;20196;-66
2020/12/10 03:22:41;;;;;;;53.83;32.00;;;1.70;99.90;;;;;;5042840;28;20189;-66
2020/12/10 03:25:07;;;;;;;53.63;31.73;;;1.70;99.90;;;;;;5037656;28;20200;-65
2020/12/10 03:27:33;;;;;;;56.40;33.10;;;1.70;99.90;;;;;;5045129;28;20194;-66
2020/12/10 03:29:58;;;;;;;52.00;33.03;;;1.70;99.90;;;;;;5038980;28;20205;-65
2020/12/10 03:32:24;;;;;;;60.60;35.17;;;1.70;99.90;;;;;;5043738;28;20191;-65
2020/12/10 03:34:50;;;;;;;62.43;34.33;;;1.70;99.90;;;;;;5045000;28;20262;-65
2020/12/10 03:37:15;;;;;;;52.60;32.23;;;1.80;99.90;;;;;;5043008;28;20223;-66
2020/12/10 03:39:41;;;;;;;60.10;33.83;;;1.70;99.90;;;;;;5040292;28;20296;-65
2020/12/10 03:42:07;;;;;;;58.53;34.20;;;1.70;99.90;;;;;;5043567;28;20309;-66
2020/12/10 03:44:32;;;;;;;57.17;33.90;;;1.70;99.90;;;;;;5046664;28;20628;-66
2020/12/10 03:46:58;;;;;;;57.10;33.67;;;1.70;99.90;;;;;;5035846;28;20188;-66
2020/12/10 03:49:24;;;;;;;62.20;34.10;;;1.70;99.90;;;;;;5039612;28;20208;-66
2020/12/10 03:51:49;;;;;;;55.23;33.90;;;1.70;99.90;;;;;;5039920;28;20241;-65
2020/12/10 03:54:15;;;;;;;53.30;32.87;;;1.70;99.90;;;;;;5038414;28;20195;-66
2020/12/10 03:56:41;;;;;;;52.63;32.37;;;1.70;99.90;;;;;;5045549;28;20192;-65
2020/12/10 03:59:07;;;;;;;50.70;31.63;;;1.70;99.90;;;;;;5044842;28;20685;-65
2020/12/10 04:01:33;;;;;;;49.17;31.13;;;1.70;99.90;;;;;;5045111;28;20180;-67
2020/12/10 04:03:58;;;;;;;52.63;31.90;;;1.70;99.90;;;;;;5035421;28;20191;-65
2020/12/10 04:06:25;;;;;;;55.70;34.50;;;1.60;99.90;;;;;;5046251;28;20181;-66
2020/12/10 04:08:51;;;;;;;58.10;32.97;;;1.60;99.90;;;;;;5044550;28;20252;-66
2020/12/10 04:11:17;;;;;;;52.20;32.23;;;1.60;99.90;;;;;;5038975;28;20663;-65
2020/12/10 04:13:42;;;;;;;55.00;33.13;;;1.70;99.90;;;;;;5046496;28;20185;-64
2020/12/10 04:16:08;;;;;;;54.73;33.00;;;1.70;99.90;;;;;;5038865;28;20215;-64
2020/12/10 04:18:38;;;;;;;58.33;33.60;;;1.70;99.90;;;;;;5040829;28;20398;-67
2020/12/10 04:21:05;;;;;;;52.13;33.90;;;1.70;99.90;;;;;;5043765;28;20175;-66
2020/12/10 04:23:31;;;;;;;51.90;32.70;;;1.70;99.90;;;;;;5045497;28;20553;-67
2020/12/10 04:25:57;;;;;;;52.70;32.77;;;1.70;99.90;;;;;;5037413;28;20184;-67
2020/12/10 04:28:23;;;;;;;59.33;34.17;;;1.70;99.90;;;;;;5044090;28;20540;-66
2020/12/10 04:30:48;;;;;;;51.60;32.97;;;1.70;99.90;;;;;;5035519;28;20211;-66
2020/12/10 04:33:14;;;;;;;53.73;33.53;;;1.70;99.90;;;;;;5042727;28;20198;-67
2020/12/10 04:35:40;;;;;;;55.43;34.93;;;1.70;99.90;;;;;;5038537;28;20188;-65
2020/12/10 04:38:07;;;;;;;55.93;34.77;;;1.70;99.90;;;;;;5039500;28;20292;-67
2020/12/10 04:40:33;;;;;;;60.80;35.03;;;1.70;99.90;;;;;;5042730;28;20282;-65
2020/12/10 04:43:01;;;;;;;62.90;36.03;;;1.60;99.90;;;;;;5040684;28;20513;-66
2020/12/10 04:45:27;;;;;;;58.90;35.90;;;1.60;99.90;;;;;;5045625;28;20181;-65
2020/12/10 04:47:53;;;;;;;60.92;37.10;;;1.60;99.90;;;;;;5041093;28;20446;-66
2020/12/10 04:50:23;;;;;;;63.17;36.47;;;1.60;99.90;;;;;;5045245;28;20599;-66
2020/12/10 04:52:52;;;;;;;57.67;35.17;;;1.60;99.90;;;;;;5040371;28;20190;-68
2020/12/10 04:55:19;;;;;;;54.97;34.93;;;1.70;99.90;;;;;;5039212;28;20177;-67
2020/12/10 04:57:45;;;;;;;61.93;35.50;;;1.70;99.90;;;;;;5025765;28;20210;-66
2020/12/10 05:00:17;;;;;;;59.37;34.73;;;1.60;99.90;;;;;;5036580;28;20199;-65
2020/12/10 05:02:45;;;;;;;58.73;36.03;;;1.60;99.90;;;;;;5032505;28;20264;-65
2020/12/10 05:05:26;;;;;;;63.87;35.30;;;1.70;99.90;;;;;;5047315;28;20306;-65
2020/12/10 05:07:53;;;;;;;59.60;35.23;;;1.70;99.90;;;;;;5036447;28;20217;-67
2020/12/10 05:10:18;;;;;;;62.07;35.20;;;1.70;99.90;;;;;;5039549;28;20209;-68
2020/12/10 05:12:45;;;;;;;64.17;36.60;;;1.60;99.90;;;;;;5049060;28;20182;-67
2020/12/10 05:15:12;;;;;;;58.70;34.90;;;1.60;99.90;;;;;;5046703;28;20212;-66
2020/12/10 05:17:38;;;;;;;63.33;37.50;;;1.60;99.90;;;;;;5051171;28;20296;-64
2020/12/10 05:20:06;;;;;;;63.07;35.67;;;1.60;99.90;;;;;;5042276;28;20282;-66
2020/12/10 05:22:32;;;;;;;61.00;35.67;;;1.50;99.90;;;;;;5043634;28;20180;-64
2020/12/10 05:25:02;;;;;;;64.27;35.53;;;1.50;99.90;;;;;;5042231;28;20316;-66
2020/12/10 05:27:28;;;;;;;58.93;34.60;;;1.50;99.90;;;;;;5045732;28;20596;-65
2020/12/10 05:29:54;;;;;;;63.30;36.80;;;1.50;99.90;;;;;;5049602;28;20211;-66
2020/12/10 05:32:35;;;;;;;58.47;34.80;;;1.50;99.90;;;;;;5044432;28;20201;-66
2020/12/10 05:35:22;;;;;;;52.17;32.73;;;1.50;99.90;;;;;;5038543;28;20181;-66
2020/12/10 05:37:51;;;;;;;54.10;32.73;;;1.50;99.90;;;;;;5042014;28;20211;-66
2020/12/10 05:40:16;;;;;;;53.53;33.10;;;1.50;99.90;;;;;;5041202;28;20199;-66
2020/12/10 05:42:48;;;;;;;49.17;31.63;;;1.40;99.90;;;;;;5035694;28;20177;-66
2020/12/10 05:45:19;;;;;;;58.63;33.03;;;1.40;99.90;;;;;;5031828;28;20190;-65
2020/12/10 05:47:44;;;;;;;52.87;33.10;;;1.40;99.90;;;;;;5045447;28;20285;-66
2020/12/10 05:50:14;;;;;;;51.00;30.77;;;1.40;99.90;;;;;;5043976;28;20705;-66
2020/12/10 05:53:07;;;;;;;56.63;35.17;;;1.40;99.90;;;;;;5028596;28;20187;-66
2020/12/10 05:55:40;;;;;;;56.37;32.83;;;1.40;99.90;;;;;;5040410;28;20183;-65
2020/12/10 05:58:06;;;;;;;50.33;31.87;;;1.30;99.90;;;;;;5040127;28;20248;-67
2020/12/10 06:00:34;;;;;;;51.63;32.70;;;1.30;99.90;;;;;;5049855;28;20608;-65
2020/12/10 06:03:00;;;;;;;53.87;33.33;;;1.30;99.90;;;;;;5038518;28;20700;-68
2020/12/10 06:05:27;;;;;;;55.40;32.23;;;1.30;99.90;;;;;;5036492;28;20702;-65
2020/12/10 06:08:05;;;;;;;58.57;34.80;;;1.30;99.90;;;;;;5041024;28;20195;-68
2020/12/10 06:10:37;;;;;;;54.93;32.67;;;1.30;99.90;;;;;;5038332;28;21703;-67
2020/12/10 06:13:04;;;;;;;54.27;33.30;;;1.40;99.90;;;;;;5039511;28;20241;-65
2020/12/10 06:15:32;;;;;;;54.00;32.03;;;1.40;99.90;;;;;;5039387;28;20183;-67
2020/12/10 06:17:59;;;;;;;60.10;34.00;;;1.30;99.90;;;;;;5048397;28;20709;-66
2020/12/10 06:20:40;;;;;;;62.30;35.93;;;1.40;99.90;;;;;;5036190;28;20206;-68
2020/12/10 06:23:28;;;;;;;57.07;33.40;;;1.40;99.90;;;;;;5047690;28;20180;-68
2020/12/10 06:25:56;;;;;;;59.27;33.33;;;1.40;99.90;;;;;;5044351;28;20191;-65
2020/12/10 06:28:23;;;;;;;61.37;35.13;;;1.40;99.90;;;;;;5050060;28;20210;-66
2020/12/10 06:31:14;;;;;;;61.43;34.07;;;1.40;99.90;;;;;;5042329;28;20210;-66
2020/12/10 06:33:44;;;;;;;52.67;32.30;;;1.30;99.90;;;;;;5033997;28;20206;-67
2020/12/10 06:36:20;;;;;;;62.03;35.07;;;1.40;99.90;;;;;;5041271;28;20187;-66
2020/12/10 06:38:45;;;;;;;60.87;33.43;;;1.40;99.90;;;;;;5044666;28;20212;-68
2020/12/10 06:41:11;;;;;;;60.57;34.53;;;1.40;99.90;;;;;;5040359;28;20273;-66
2020/12/10 06:43:37;;;;;;;58.87;33.73;;;1.30;99.90;;;;;;5045465;28;20189;-67
2020/12/10 06:46:04;;;;;;;59.30;32.40;;;1.40;99.90;;;;;;5045436;28;20714;-67
2020/12/10 06:48:41;;;;;;;57.50;33.47;;;1.40;99.90;;;;;;5027468;28;20204;-67
2020/12/10 06:51:14;;;;;;;57.50;32.80;;;1.40;99.90;;;;;;5037983;28;20189;-65
2020/12/10 06:54:00;;;;;;;69.20;36.60;;;1.40;99.90;;;;;;5043500;28;20203;-67
2020/12/10 06:56:27;;;;;;;58.07;34.10;;;1.40;99.90;;;;;;5053825;28;20180;-67
2020/12/10 06:58:55;;;;;;;65.23;36.57;;;1.40;99.90;;;;;;5058375;28;20219;-65
2020/12/10 07:01:20;;;;;;;66.83;38.03;;;1.50;99.90;;;;;;5050795;28;20543;-65
2020/12/10 07:03:47;;;;;;;68.53;36.33;;;1.50;99.90;;;;;;5044613;28;20188;-65
2020/12/10 07:06:20;;;;;;;62.60;34.37;;;1.60;99.90;;;;;;5043448;28;20173;-65
2020/12/10 07:09:05;;;;;;;56.13;33.47;;;1.80;99.90;;;;;;5042191;28;20190;-67
2020/12/10 07:11:33;;;;;;;58.93;32.37;;;1.90;99.90;;;;;;5025053;28;20738;-67
2020/12/10 07:13:59;;;;;;;55.73;32.33;;;2.00;99.90;;;;;;5043091;28;20222;-67
2020/12/10 07:16:32;;;;;;;58.13;33.30;;;2.00;99.90;;;;;;5043831;28;20203;-65
2020/12/10 07:18:58;;;;;;;56.40;32.33;;;2.00;99.90;;;;;;5042263;28;20727;-65
2020/12/10 07:21:24;;;;;;;55.30;31.97;;;2.00;99.90;;;;;;5039421;28;20183;-66
2020/12/10 07:23:51;;;;;;;62.07;34.27;;;2.00;99.90;;;;;;5047117;28;20182;-66
2020/12/10 07:26:17;;;;;;;61.07;32.40;;;2.00;99.90;;;;;;5039786;28;20261;-66
2020/12/10 07:28:45;;;;;;;55.87;31.60;;;2.00;99.90;;;;;;5038294;28;20206;-66
2020/12/10 07:31:17;;;;;;;62.27;34.67;;;2.10;99.90;;;;;;5044563;28;20189;-66
2020/12/10 07:33:44;;;;;;;60.13;36.07;;;2.00;99.90;;;;;;5048642;28;20601;-66
2020/12/10 07:36:09;;;;;;;59.83;35.53;;;2.10;99.90;;;;;;5040173;28;20559;-66
2020/12/10 07:38:35;;;;;;;56.50;34.57;;;2.10;99.90;;;;;;5037277;28;20206;-66
2020/12/10 07:41:01;;;;;;;58.00;33.60;;;2.10;99.90;;;;;;5029486;28;20593;-66
2020/12/10 07:43:27;;;;;;;53.23;31.53;;;2.20;99.90;;;;;;5038349;28;20980;-66
2020/12/10 07:45:53;;;;;;;51.03;32.17;;;2.20;99.90;;;;;;5043528;28;20183;-68
2020/12/10 07:48:19;;;;;;;50.20;30.97;;;2.20;99.90;;;;;;5045730;28;20179;-66
2020/12/10 07:50:47;;;;;;;52.10;32.33;;;2.20;99.90;;;;;;5036603;28;20230;-67
2020/12/10 07:53:13;;;;;;;53.83;32.40;;;2.10;99.90;;;;;;5044829;28;20214;-66
2020/12/10 07:56:00;;;;;;;56.67;32.40;;;2.10;99.90;;;;;;5036819;28;20272;-66
2020/12/10 07:58:37;;;;;;;58.57;33.43;;;2.00;99.90;;;;;;5038214;28;20208;-66
2020/12/10 08:01:05;;;;;;;58.50;33.57;;;1.90;99.90;;;;;;5043488;28;20177;-65
2020/12/10 08:03:53;;;;;;;61.87;33.10;;;1.90;99.90;;;;;;5048509;28;20202;-66
2020/12/10 08:06:19;;;;;;;58.37;34.60;;;1.90;99.90;;;;;;5042787;28;20183;-67
2020/12/10 08:08:56;;;;;;;55.10;30.77;;;1.90;99.90;;;;;;5044410;28;20231;-66
2020/12/10 08:11:22;;;;;;;57.73;33.70;;;1.80;99.90;;;;;;5040478;28;20224;-68
2020/12/10 08:13:53;;;;;;;50.30;30.33;;;1.80;99.90;;;;;;5035459;28;20216;-69
2020/12/10 08:16:19;;;;;;;58.33;31.47;;;1.80;99.90;;;;;;5038240;28;20664;-67
2020/12/10 08:18:45;;;;;;;50.50;29.50;;;1.90;99.90;;;;;;5039009;28;20221;-68
2020/12/10 08:21:10;;;;;;;48.70;29.57;;;1.90;99.90;;;;;;5034769;28;20658;-67
2020/12/10 08:23:44;;;;;;;49.30;30.07;;;1.90;99.90;;;;;;5033104;28;20199;-66
2020/12/10 08:26:14;;;;;;;57.23;31.17;;;1.90;99.90;;;;;;5044249;28;20186;-67
2020/12/10 08:28:51;;;;;;;48.40;29.97;;;1.80;99.90;;;;;;5047425;28;20197;-68
2020/12/10 08:31:25;;;;;;;53.00;31.90;;;1.80;99.90;;;;;;5036331;28;20179;-66
2020/12/10 08:33:52;;;;;;;56.43;31.37;;;1.80;99.90;;;;;;5039523;28;20536;-68
2020/12/10 08:36:26;;;;;;;52.23;32.93;;;1.80;99.90;;;;;;5044568;28;20720;-66
2020/12/10 08:38:53;;;;;;;51.47;29.30;;;1.80;99.90;;;;;;5034394;28;20215;-68
2020/12/10 08:41:33;;;;;;;53.83;32.83;;;1.80;99.90;;;;;;5035188;28;20275;-67
2020/12/10 08:44:02;;;;;;;49.37;31.27;;;1.90;99.90;;;;;;5038922;28;20184;-67
2020/12/10 08:46:28;;;;;;;57.30;32.37;;;2.00;99.90;;;;;;5039269;28;20185;-67
2020/12/10 08:48:56;;;;;;;47.03;30.03;;;2.20;99.90;;;;;;5039616;28;20219;-69
2020/12/10 08:51:34;;;;;;;51.17;30.13;;;2.30;99.90;;;;;;5042318;28;20183;-67
2020/12/10 08:54:00;;;;;;;45.40;29.13;;;2.40;99.90;;;;;;5040341;28;20214;-67
2020/12/10 08:56:34;;;;;;;46.83;29.03;;;2.50;99.90;;;;;;5043660;28;20263;-69
2020/12/10 08:58:59;;;;;;;48.93;31.13;;;2.70;99.90;;;;;;5047656;28;20224;-68
2020/12/10 09:01:25;;;;;;;56.63;36.83;;;2.80;99.90;;;;;;5040400;28;20185;-67
2020/12/10 09:03:50;;;;;;;51.20;32.70;;;2.80;99.90;;;;;;5042102;28;20720;-67
2020/12/10 09:06:16;;;;;;;42.90;29.47;;;2.80;99.90;;;;;;5036350;28;20240;-68
2020/12/10 09:08:42;;;;;;;44.00;29.93;;;2.80;99.60;;;;;;5033978;28;20713;-67
2020/12/10 09:11:08;;;;;;;46.20;30.20;;;2.70;99.40;;;;;;5039691;28;20265;-67
2020/12/10 09:13:34;;;;;;;45.53;28.90;;;2.60;99.60;;;;;;5017893;28;20663;-66
2020/12/10 09:15:59;;;;;;;40.13;28.13;;;2.50;99.90;;;;;;5017713;28;20195;-66
2020/12/10 09:18:25;;;;;;;44.97;29.97;;;2.50;99.90;;;;;;5034700;28;20704;-67
2020/12/10 09:20:52;;;;;;;40.73;28.10;;;2.50;99.90;;;;;;5037444;28;20215;-67
2020/12/10 09:23:17;;;;;;;40.03;26.87;;;2.50;99.90;;;;;;5039225;28;20183;-68
2020/12/10 09:25:43;;;;;;;42.87;28.50;;;2.60;99.90;;;;;;5031927;28;20553;-67
2020/12/10 09:28:09;;;;;;;40.43;26.47;;;2.70;99.90;;;;;;5021525;28;20193;-67
2020/12/10 09:30:40;;;;;;;37.23;26.60;;;2.80;99.50;;;;;;5034723;28;20657;-68
2020/12/10 09:33:06;;;;;;;37.33;25.53;;;2.80;99.00;;;;;;5042772;28;20199;-66
2020/12/10 09:35:32;;;;;;;37.93;25.40;;;2.80;98.90;;;;;;5024622;28;20268;-67
2020/12/10 09:38:01;;;;;;;38.77;26.03;;;2.90;99.60;;;;;;5046837;28;20220;-67
2020/12/10 09:40:27;;;;;;;36.43;26.27;;;3.10;99.30;;;;;;5033775;28;20279;-67
2020/12/10 09:42:53;;;;;;;34.73;25.57;;;3.20;99.20;;;;;;5043156;28;20649;-69
2020/12/10 09:45:19;;;;;;;35.07;25.33;;;3.20;98.40;;;;;;5041648;28;20220;-69
2020/12/10 09:47:46;;;;;;;38.10;26.50;;;3.20;98.60;;;;;;5037607;28;20556;-69
2020/12/10 09:50:27;;;;;;;33.33;24.00;;;3.20;98.10;;;;;;5039866;28;20212;-67
2020/12/10 09:53:01;;;;;;;36.73;25.47;;;3.20;98.30;;;;;;5033963;28;20674;-67
2020/12/10 09:55:59;;;;;;;37.97;26.00;;;3.20;98.10;;;;;;5019007;28;20552;-68
2020/12/10 09:58:25;;;;;;;31.93;22.77;;;3.10;98.50;;;;;;5041091;28;20222;-67
2020/12/10 10:00:51;;;;;;;31.77;23.20;;;3.10;97.70;;;;;;5039533;28;20275;-68
2020/12/10 10:03:18;;;;;;;33.00;23.33;;;2.90;98.20;;;;;;5047445;28;20634;-66
2020/12/10 10:05:44;;;;;;;33.03;24.70;;;2.80;98.40;;;;;;5050204;28;20189;-67
2020/12/10 10:08:10;;;;;;;30.77;22.83;;;2.70;98.70;;;;;;5024506;28;20195;-67
2020/12/10 10:10:35;;;;;;;34.33;24.30;;;2.70;99.10;;;;;;5046914;28;20208;-67
2020/12/10 10:13:01;;;;;;;32.90;24.40;;;2.70;98.90;;;;;;5049893;28;20184;-67
2020/12/10 10:15:27;;;;;;;33.00;23.50;;;2.70;99.50;;;;;;5039671;28;20199;-69
2020/12/10 10:17:52;;;;;;;33.73;24.77;;;2.70;99.20;;;;;;5046980;28;20201;-68
2020/12/10 10:20:18;;;;;;;37.87;27.73;;;2.80;99.70;;;;;;5045505;28;20235;-68
2020/12/10 10:22:44;;;;;;;36.27;25.07;;;2.90;99.80;;;;;;5046412;28;20217;-68
2020/12/10 10:25:10;;;;;;;34.10;25.13;;;3.00;99.00;;;;;;5045262;28;20190;-69
2020/12/10 10:27:37;;;;;;;43.93;27.27;;;3.00;99.10;;;;;;5043610;28;20180;-68
2020/12/10 10:30:06;;;;;;;35.37;25.40;;;3.00;98.60;;;;;;5048441;28;20573;-67
2020/12/10 10:32:32;;;;;;;37.27;24.97;;;3.00;99.60;;;;;;5041152;28;20187;-67
2020/12/10 10:34:57;;;;;;;37.70;25.43;;;3.00;98.60;;;;;;5049170;28;20632;-68
2020/12/10 10:37:23;;;;;;;33.67;23.17;;;3.00;98.50;;;;;;5027691;28;20214;-67
2020/12/10 10:39:49;;;;;;;36.40;24.87;;;3.00;97.80;;;;;;5043413;28;20209;-67
2020/12/10 10:42:14;;;;;;;37.93;25.30;;;2.90;98.50;;;;;;5038770;28;20185;-68
2020/12/10 10:44:40;;;;;;;37.30;25.17;;;2.90;99.40;;;;;;5043273;28;20188;-68
2020/12/10 10:47:06;;;;;;;37.03;26.90;;;2.90;99.20;;;;;;5047430;28;20219;-69
2020/12/10 10:49:31;;;;;;;37.33;27.20;;;2.90;99.90;;;;;;5041527;28;20600;-67
2020/12/10 10:51:57;;;;;;;37.70;27.20;;;2.90;99.00;;;;;;5046362;28;20704;-68
2020/12/10 10:54:22;;;;;;;39.53;28.53;;;2.90;99.30;;;;;;5031753;28;20185;-68
2020/12/10 10:56:48;;;;;;;34.77;24.50;;;3.00;99.70;;;;;;5046782;28;20186;-68
2020/12/10 10:59:14;;;;;;;37.63;25.73;;;3.00;99.00;;;;;;5037486;28;20232;-68
2020/12/10 11:01:40;;;;;;;37.77;24.50;;;2.90;98.40;;;;;;5037562;28;20689;-68
2020/12/10 11:04:06;;;;;;;31.57;24.20;;;2.90;99.40;;;;;;5042845;28;20272;-67
2020/12/10 11:06:32;;;;;;;37.00;24.93;;;2.90;98.70;;;;;;5039238;28;20647;-69
2020/12/10 11:08:57;;;;;;;36.53;25.47;;;2.90;99.00;;;;;;5043953;28;20193;-67
2020/12/10 11:11:24;;;;;;;31.90;23.53;;;2.90;99.70;;;;;;5036521;28;20185;-67
2020/12/10 11:13:50;;;;;;;32.73;24.07;;;2.90;98.30;;;;;;5040480;28;20193;-67
2020/12/10 11:16:16;;;;;;;34.67;24.43;;;2.90;98.50;;;;;;5042883;28;20648;-68
2020/12/10 11:18:44;;;;;;;39.87;26.93;;;3.00;98.80;;;;;;5042215;28;20215;-68
2020/12/10 11:21:10;;;;;;;34.13;23.63;;;3.00;99.00;;;;;;5037502;28;20269;-67
2020/12/10 11:23:36;;;;;;;31.17;22.47;;;3.00;97.60;;;;;;5041166;28;20182;-68
2020/12/10 11:26:02;;;;;;;33.00;22.73;;;2.90;98.00;;;;;;5034130;28;20213;-68
2020/12/10 11:28:28;;;;;;;33.63;22.57;;;2.90;98.30;;;;;;5044134;28;20624;-68
2020/12/10 11:30:55;;;;;;;35.37;24.97;;;3.00;98.90;;;;;;5036980;28;20205;-69
2020/12/10 11:33:21;;;;;;;32.33;23.87;;;3.10;99.40;;;;;;5037615;28;20870;-67
2020/12/10 11:35:47;;;;;;;30.47;21.70;;;3.20;99.20;;;;;;5039840;28;20195;-67
2020/12/10 11:38:12;;;;;;;29.47;21.93;;;3.20;97.20;;;;;;5037298;28;20601;-67
2020/12/10 11:40:39;;;;;;;30.70;22.77;;;3.10;96.90;;;;;;5041818;28;20221;-68
2020/12/10 11:43:05;;;;;;;31.37;21.77;;;3.10;97.80;;;;;;5046713;28;20205;-67
2020/12/10 11:45:31;;;;;;;33.33;22.67;;;3.00;97.60;;;;;;5044755;28;20216;-68
2020/12/10 11:47:59;;;;;;;30.93;22.50;;;3.00;97.40;;;;;;5041071;28;20192;-68
2020/12/10 11:50:25;;;;;;;31.23;22.30;;;3.00;97.60;;;;;;5045537;28;20210;-68
2020/12/10 11:52:51;;;;;;;31.33;22.50;;;3.00;98.10;;;;;;5048156;28;20229;-68
2020/12/10 11:55:18;;;;;;;32.97;23.07;;;3.20;99.00;;;;;;5047652;28;20278;-69
2020/12/10 11:57:44;;;;;;;36.47;24.73;;;3.30;98.30;;;;;;5040041;28;20276;-69
2020/12/10 12:00:11;;;;;;;32.03;23.27;;;3.30;98.40;;;;;;5041043;28;20878;-68
2020/12/10 12:02:39;;;;;;;33.67;24.50;;;3.30;98.40;;;;;;5022388;28;20257;-67
2020/12/10 12:05:05;;;;;;;31.53;23.37;;;3.40;98.40;;;;;;5044650;28;20240;-68
2020/12/10 12:07:31;;;;;;;33.03;25.00;;;3.50;98.10;;;;;;5041544;28;20305;-68
2020/12/10 12:09:57;;;;;;;34.13;24.50;;;3.50;98.10;;;;;;5023137;28;20215;-69
2020/12/10 12:12:22;;;;;;;29.63;22.43;;;3.50;97.40;;;;;;5034379;28;20197;-69
2020/12/10 12:14:48;;;;;;;35.87;24.77;;;3.60;97.00;;;;;;5039777;28;20198;-66
2020/12/10 12:17:14;;;;;;;32.37;22.87;;;3.60;97.70;;;;;;5044732;28;20684;-68
2020/12/10 12:19:39;;;;;;;30.37;22.67;;;3.50;98.00;;;;;;5038730;28;20220;-67
2020/12/10 12:22:05;;;;;;;29.07;21.77;;;3.60;97.20;;;;;;5037816;28;20189;-68
2020/12/10 12:24:31;;;;;;;31.80;22.57;;;3.50;97.30;;;;;;5037998;28;20210;-69
2020/12/10 12:26:56;;;;;;;27.53;20.97;;;3.50;97.60;;;;;;5042421;28;20194;-70
2020/12/10 12:29:22;;;;;;;30.73;21.47;;;3.60;96.90;;;;;;5032783;28;20214;-71
2020/12/10 12:31:48;;;;;;;32.10;21.10;;;3.60;97.30;;;;;;5040218;28;20188;-71
2020/12/10 12:34:13;;;;;;;31.87;23.33;;;3.60;96.70;;;;;;5037309;28;20541;-68
2020/12/10 12:36:39;;;;;;;27.40;20.80;;;3.70;96.40;;;;;;5021760;28;20191;-68
2020/12/10 12:39:05;;;;;;;30.00;22.70;;;3.70;96.40;;;;;;5042850;28;20645;-69